M/T Pazar — TCMC — position and weather

sailwx.info

Track history (hours):
 
Tides and Currents Weather Stations Pressure Air Temp Water Temp Dewpoint Dewpoint Depression Visibility Wind Speed Wind Dir Waves Ship Positions

M/T Pazar

Last reported at 2017-Jan-10 18:07 UTC. Time now 2017-Jan-18 16:19 UTC.
Position N 46°23' E 030°51'.

Length 85 m; draft 5.2 m.

Type: Tanker. MMSI: 271000251.

Date/timePositionNaut miles runAvg speedWind from/ knotsBaromVisibWave heightAir tempDewpointWater temp
2017-Jan-10 18:07N 46°23' E 030°51'5 9.8
2017-Jan-10 17:33N 46°28' E 030°49'2 0.5
2017-Jan-10 12:04N 46°29' E 030°45'0 0.0
2017-Jan-10 11:31N 46°29' E 030°45'0 0.0
2017-Jan-10 06:07N 46°29' E 030°45'0 0.0
2017-Jan-10 05:28N 46°29' E 030°45'0 0.0
2017-Jan-10 04:13N 46°29' E 030°45'0 0.0
2017-Jan-10 03:31N 46°29' E 030°45'0 0.0
2017-Jan-10 02:31N 46°29' E 030°45'0 0.0
2017-Jan-10 01:28N 46°29' E 030°45'0 0.0
2017-Jan-10 00:13N 46°29' E 030°45'0 0.0
2017-Jan-09 23:31N 46°29' E 030°45'1 1.2
2017-Jan-09 22:33N 46°30' E 030°46'4 3.7
2017-Jan-09 21:33N 46°28' E 030°51'  
2017-Jan-05 21:21N 37°37' E 023°47'5 6.3
2017-Jan-05 20:33N 37°41' E 023°42'8 7.7
2017-Jan-05 19:33N 37°47' E 023°38'9 9.2
2017-Jan-05 18:33N 37°51' E 023°27'1111.0
2017-Jan-05 17:33N 37°53' E 023°13'  
2017-Jan-02 21:25N 37°32' E 023°60'7 8.0
2017-Jan-02 20:33N 37°37' E 024°05'11 9.9
2017-Jan-02 19:24N 37°44' E 024°16'18 9.7
2017-Jan-02 17:33N 37°56' E 024°33'  
Track history (hours):
 
Tides and Currents Weather Stations Pressure Air Temp Water Temp Dewpoint Dewpoint Depression Visibility Wind Speed Wind Dir Waves Ship Positions

M/T Pazar

Last reported at 2017-Jan-10 18:07 UTC. Time now 2017-Jan-18 16:19 UTC.
Position N 46°23' E 030°51'.

Length 85 m; draft 5.2 m.

Type: Tanker. MMSI: 271000251.

Date/timePositionNaut miles runAvg speedWind from/ knotsBaromVisibWave heightAir tempDewpointWater temp
2017-Jan-10 18:07N 46°23' E 030°51'5 9.8
2017-Jan-10 17:33N 46°28' E 030°49'2 0.5
2017-Jan-10 12:04N 46°29' E 030°45'0 0.0
2017-Jan-10 11:31N 46°29' E 030°45'0 0.0
2017-Jan-10 06:07N 46°29' E 030°45'0 0.0
2017-Jan-10 05:28N 46°29' E 030°45'0 0.0
2017-Jan-10 04:13N 46°29' E 030°45'0 0.0
2017-Jan-10 03:31N 46°29' E 030°45'0 0.0
2017-Jan-10 02:31N 46°29' E 030°45'0 0.0
2017-Jan-10 01:28N 46°29' E 030°45'0 0.0
2017-Jan-10 00:13N 46°29' E 030°45'0 0.0
2017-Jan-09 23:31N 46°29' E 030°45'1 1.2
2017-Jan-09 22:33N 46°30' E 030°46'4 3.7
2017-Jan-09 21:33N 46°28' E 030°51'  
2017-Jan-05 21:21N 37°37' E 023°47'5 6.3
2017-Jan-05 20:33N 37°41' E 023°42'8 7.7
2017-Jan-05 19:33N 37°47' E 023°38'9 9.2
2017-Jan-05 18:33N 37°51' E 023°27'1111.0
2017-Jan-05 17:33N 37°53' E 023°13'  
2017-Jan-02 21:25N 37°32' E 023°60'7 8.0
2017-Jan-02 20:33N 37°37' E 024°05'11 9.9
2017-Jan-02 19:24N 37°44' E 024°16'18 9.7
2017-Jan-02 17:33N 37°56' E 024°33'  

Dump ship's entire track history